createdAt,value
2023-01-20T00:01:53.720Z,20.70
2023-01-20T00:04:21.600Z,20.17
2023-01-20T00:06:49.493Z,18.63
2023-01-20T00:09:18.880Z,22.98
2023-01-20T00:11:47.444Z,22.65
2023-01-20T00:14:17.107Z,23.45
2023-01-20T00:16:45.319Z,20.92
2023-01-20T00:19:13.880Z,22.08
2023-01-20T00:21:41.945Z,24.63
2023-01-20T00:24:09.926Z,28.02
2023-01-20T00:26:37.818Z,20.63
2023-01-20T00:29:05.710Z,20.90
2023-01-20T00:31:36.191Z,21.73
2023-01-20T00:34:04.274Z,28.48
2023-01-20T00:36:33.393Z,24.48
2023-01-20T00:39:02.761Z,21.40
2023-01-20T00:41:30.657Z,20.90
2023-01-20T00:43:58.586Z,19.60
2023-01-20T00:46:26.469Z,25.42
2023-01-20T00:48:55.880Z,28.00
2023-01-20T00:51:23.941Z,28.65
2023-01-20T00:53:51.807Z,26.42
2023-01-20T00:56:19.716Z,29.70
2023-01-20T00:58:47.579Z,26.02
2023-01-20T01:01:15.605Z,29.50
2023-01-20T01:03:45.076Z,25.58
2023-01-20T01:06:16.059Z,25.88
2023-01-20T01:08:45.371Z,23.73
2023-01-20T01:11:14.380Z,32.10
2023-01-20T01:13:43.005Z,20.35
2023-01-20T01:16:13.676Z,21.45
2023-01-20T01:18:42.289Z,22.92
2023-01-20T01:21:11.384Z,28.63
2023-01-20T01:23:40.610Z,25.40
2023-01-20T01:26:09.398Z,27.95
2023-01-20T01:28:37.635Z,23.05
2023-01-20T01:31:08.074Z,33.95
2023-01-20T01:33:36.524Z,30.30
2023-01-20T01:36:05.904Z,22.58
2023-01-20T01:38:33.814Z,23.05
2023-01-20T01:41:03.092Z,22.63
2023-01-20T01:43:33.706Z,16.35
2023-01-20T01:46:01.994Z,19.45
2023-01-20T01:48:34.589Z,19.65
2023-01-20T01:51:05.939Z,25.13
2023-01-20T01:53:40.521Z,23.95
2023-01-20T01:56:10.893Z,20.40
2023-01-20T01:58:42.160Z,25.02
2023-01-20T02:01:10.117Z,22.63
2023-01-20T02:03:45.935Z,22.48
2023-01-20T02:06:14.985Z,25.58
2023-01-20T02:08:43.449Z,26.52
2023-01-20T02:11:12.669Z,18.92
2023-01-20T02:13:40.855Z,25.55
2023-01-20T02:16:16.583Z,21.42
2023-01-20T02:19:01.232Z,22.00
2023-01-20T02:21:55.647Z,21.65
2023-01-20T02:24:47.181Z,20.60
2023-01-20T02:27:31.483Z,19.98
2023-01-20T02:30:44.615Z,24.10
2023-01-20T02:33:19.018Z,23.92
2023-01-20T02:35:50.349Z,23.42
2023-01-20T02:38:27.362Z,20.02
2023-01-20T02:41:07.191Z,21.02
2023-01-20T02:43:41.652Z,20.50
2023-01-20T02:46:16.575Z,21.75
2023-01-20T02:48:51.427Z,24.58
2023-01-20T02:51:24.352Z,19.95
2023-01-20T02:53:55.435Z,19.90
2023-01-20T02:56:28.921Z,20.90
2023-01-20T02:59:00.977Z,19.30
2023-01-20T03:01:32.354Z,22.80
2023-01-20T03:04:04.741Z,23.23
2023-01-20T03:06:38.195Z,19.20
2023-01-20T03:09:09.998Z,21.85
2023-01-20T03:11:41.945Z,27.48
2023-01-20T03:14:13.931Z,16.48
2023-01-20T03:16:42.589Z,24.95
2023-01-20T03:19:12.432Z,19.33
2023-01-20T03:21:40.331Z,21.90
2023-01-20T03:24:08.982Z,19.95
2023-01-20T03:26:36.843Z,29.00
2023-01-20T03:29:06.865Z,25.20
2023-01-20T03:31:38.216Z,25.38
2023-01-20T03:34:10.965Z,29.45
2023-01-20T03:36:42.271Z,20.80
2023-01-20T03:39:10.381Z,30.58
2023-01-20T03:41:49.234Z,26.27
2023-01-20T03:44:27.803Z,23.20
2023-01-20T03:47:02.573Z,23.20
2023-01-20T03:49:37.994Z,25.25
2023-01-20T03:52:16.574Z,26.27
2023-01-20T03:54:49.715Z,27.08
2023-01-20T03:59:51.210Z,25.00
2023-01-20T04:02:20.877Z,31.50
2023-01-20T04:04:50.565Z,27.98
2023-01-20T04:07:23.289Z,33.05
2023-01-20T04:09:54.300Z,30.10
2023-01-20T04:12:22.454Z,37.15
2023-01-20T04:14:50.345Z,34.85
2023-01-20T04:17:18.303Z,38.00
2023-01-20T04:19:46.237Z,33.20
2023-01-20T04:22:22.172Z,27.83
2023-01-20T04:24:54.079Z,34.53
2023-01-20T04:27:21.971Z,28.20
2023-01-20T04:29:49.926Z,27.08
2023-01-20T04:32:17.822Z,31.38
2023-01-20T04:34:45.691Z,30.00
2023-01-20T04:37:13.613Z,37.75
2023-01-20T04:39:42.885Z,35.38
2023-01-20T04:42:11.258Z,34.35
2023-01-20T04:44:39.092Z,31.40
2023-01-20T04:47:07.073Z,36.58
2023-01-20T04:49:35.658Z,34.90
2023-01-20T04:52:03.539Z,30.00
2023-01-20T04:54:31.407Z,33.55
2023-01-20T04:57:00.606Z,35.70
2023-01-20T04:59:28.479Z,31.00
2023-01-20T05:01:56.517Z,37.08
2023-01-20T05:04:24.487Z,41.17
2023-01-20T05:06:52.353Z,30.30
2023-01-20T05:09:20.620Z,32.90
2023-01-20T05:11:48.479Z,36.95
2023-01-20T05:14:17.724Z,35.15
2023-01-20T05:16:47.154Z,35.80
2023-01-20T05:19:15.206Z,38.90
2023-01-20T05:21:43.580Z,37.75
2023-01-20T05:24:11.490Z,41.85
2023-01-20T05:26:39.383Z,40.00
2023-01-20T05:29:07.279Z,37.80
2023-01-20T05:31:37.586Z,42.35
2023-01-20T05:34:05.987Z,34.80
2023-01-20T05:36:33.834Z,43.15
2023-01-20T05:39:01.864Z,40.78
2023-01-20T05:41:29.760Z,40.95
2023-01-20T05:43:57.619Z,36.05
2023-01-20T05:46:25.572Z,38.33
2023-01-20T05:48:54.915Z,42.53
2023-01-20T05:51:22.812Z,39.20
2023-01-20T05:53:50.730Z,39.88
2023-01-20T05:56:18.563Z,35.33
2023-01-20T05:58:46.443Z,35.22
2023-01-20T06:01:15.390Z,44.42
2023-01-20T06:03:43.858Z,35.33
2023-01-20T06:06:15.594Z,33.58
2023-01-20T06:08:43.718Z,37.65
2023-01-20T06:11:11.971Z,33.33
2023-01-20T06:13:40.294Z,31.77
2023-01-20T06:16:09.061Z,34.70
2023-01-20T06:18:37.059Z,33.70
2023-01-20T06:21:05.305Z,33.80
2023-01-20T06:23:34.754Z,33.63
2023-01-20T06:26:03.976Z,37.47
2023-01-20T06:28:32.926Z,35.67
2023-01-20T06:31:02.501Z,36.03
2023-01-20T06:33:30.644Z,42.17
2023-01-20T06:35:59.054Z,45.03
2023-01-20T06:38:29.982Z,41.55
2023-01-20T06:41:00.459Z,37.58
2023-01-20T06:43:29.710Z,37.58
2023-01-20T06:46:00.344Z,38.47
2023-01-20T06:48:28.492Z,35.55
2023-01-20T06:51:01.579Z,44.70
2023-01-20T06:56:00.145Z,40.45
2023-01-20T06:58:29.805Z,40.17
2023-01-20T07:00:59.184Z,40.00
2023-01-20T07:03:27.289Z,31.95
2023-01-20T07:05:58.634Z,38.90
2023-01-20T07:08:26.639Z,34.55
2023-01-20T07:10:54.546Z,36.70
2023-01-20T07:13:23.918Z,36.45
2023-01-20T07:15:51.791Z,36.92
2023-01-20T07:18:19.671Z,36.60
2023-01-20T07:20:47.698Z,31.95
2023-01-20T07:23:15.523Z,34.08
2023-01-20T07:25:43.375Z,35.97
2023-01-20T07:28:11.242Z,34.60
2023-01-20T07:30:40.584Z,34.67
2023-01-20T07:33:08.543Z,35.38
2023-01-20T07:35:36.423Z,31.08
2023-01-20T07:38:04.523Z,38.53
2023-01-20T07:40:32.410Z,37.85
2023-01-20T07:43:00.266Z,35.80
2023-01-20T07:45:28.373Z,35.85
2023-01-20T07:47:58.146Z,36.63
2023-01-20T07:50:26.123Z,40.97
2023-01-20T07:52:54.847Z,31.38
2023-01-20T07:55:25.017Z,40.15
2023-01-20T07:57:53.111Z,38.20
2023-01-20T08:00:21.687Z,41.85
2023-01-20T08:02:49.612Z,43.15
2023-01-20T08:05:19.290Z,44.53
2023-01-20T08:07:51.748Z,45.63
2023-01-20T08:10:19.767Z,43.47
2023-01-20T08:12:47.651Z,49.85
2023-01-20T08:15:16.060Z,52.58
2023-01-20T08:17:44.139Z,41.03
2023-01-20T08:20:12.883Z,41.92
2023-01-20T08:22:42.098Z,38.60
2023-01-20T08:25:10.151Z,42.88
2023-01-20T08:27:38.138Z,45.58
2023-01-20T08:30:07.076Z,47.00
2023-01-20T08:32:35.185Z,42.10
2023-01-20T08:35:03.287Z,41.42
2023-01-20T08:37:31.196Z,46.08
2023-01-20T08:40:00.470Z,44.13
2023-01-20T08:42:28.421Z,41.47
2023-01-20T08:44:56.346Z,49.50
2023-01-20T08:47:24.754Z,58.10
2023-01-20T08:49:53.956Z,56.17
2023-01-20T08:52:22.196Z,56.53
2023-01-20T08:54:52.968Z,50.05
2023-01-20T08:57:26.288Z,55.35
2023-01-20T08:59:54.304Z,50.85
2023-01-20T09:02:23.181Z,55.58
2023-01-20T09:04:51.108Z,46.30
2023-01-20T09:07:20.702Z,56.33
2023-01-20T09:09:48.697Z,47.97
2023-01-20T09:12:16.619Z,46.75
2023-01-20T09:14:46.758Z,46.78
2023-01-20T09:17:14.774Z,50.08
2023-01-20T09:19:42.708Z,55.00
2023-01-20T09:22:10.615Z,50.78
2023-01-20T09:24:38.508Z,66.22
2023-01-20T09:27:06.382Z,59.03
2023-01-20T09:29:34.850Z,55.33
2023-01-20T09:32:04.558Z,52.83
2023-01-20T09:34:32.707Z,53.28
2023-01-20T09:37:22.360Z,54.15
2023-01-20T09:40:08.266Z,51.53
2023-01-20T09:43:22.637Z,58.25
2023-01-20T09:45:56.267Z,47.30
2023-01-20T09:48:51.272Z,47.72
2023-01-20T09:51:43.346Z,47.90
2023-01-20T09:54:17.484Z,49.53
2023-01-20T09:56:49.031Z,54.28
2023-01-20T09:59:24.196Z,54.33
2023-01-20T10:01:57.168Z,47.63
2023-01-20T10:04:33.661Z,55.13
2023-01-20T10:07:09.852Z,47.63
2023-01-20T10:09:42.095Z,43.33
2023-01-20T10:12:13.887Z,49.13
2023-01-20T10:14:46.854Z,43.63
2023-01-20T10:17:21.912Z,43.83
2023-01-20T10:19:58.884Z,44.92
2023-01-20T10:22:32.056Z,50.67
2023-01-20T10:27:36.857Z,49.03
2023-01-20T10:30:09.839Z,46.10
2023-01-20T10:32:39.484Z,47.20
2023-01-20T10:35:17.192Z,47.58
2023-01-20T10:37:45.472Z,46.63
2023-01-20T10:40:24.622Z,51.47
2023-01-20T10:42:57.792Z,48.58
2023-01-20T10:48:12.650Z,45.20
2023-01-20T10:50:54.753Z,48.92
2023-01-20T10:53:38.634Z,45.85
2023-01-20T10:56:17.702Z,49.03
2023-01-20T10:58:47.644Z,55.17
2023-01-20T11:01:19.056Z,47.80
2023-01-20T11:03:49.595Z,51.55
2023-01-20T11:06:22.269Z,46.17
2023-01-20T11:08:50.650Z,46.08
2023-01-20T11:11:22.513Z,43.05
2023-01-20T11:13:51.662Z,45.47
2023-01-20T11:16:24.567Z,46.47
2023-01-20T11:18:58.776Z,55.53
2023-01-20T11:21:30.129Z,51.45
2023-01-20T11:23:59.492Z,48.00
2023-01-20T11:26:30.211Z,54.20
2023-01-20T11:29:01.205Z,50.80
2023-01-20T11:31:40.029Z,45.40
2023-01-20T11:34:22.378Z,51.08
2023-01-20T11:36:52.431Z,49.97
2023-01-20T11:39:28.699Z,55.05
2023-01-20T11:42:16.006Z,46.92
2023-01-20T11:44:44.879Z,61.20
2023-01-20T11:47:24.620Z,55.17
2023-01-20T11:50:20.546Z,51.80
2023-01-20T11:52:49.805Z,53.90
2023-01-20T11:55:20.642Z,59.22
2023-01-20T11:57:53.538Z,46.85
2023-01-20T12:00:37.132Z,46.08
2023-01-20T12:03:23.907Z,53.33
2023-01-20T12:05:56.825Z,60.08
2023-01-20T12:08:31.681Z,54.45
2023-01-20T12:11:03.638Z,50.10
2023-01-20T12:13:57.590Z,43.90
2023-01-20T12:16:28.900Z,53.78
2023-01-20T12:19:02.984Z,46.85
2023-01-20T12:21:35.767Z,49.13
2023-01-20T12:24:13.353Z,44.30
2023-01-20T12:26:41.297Z,44.53
2023-01-20T12:29:18.877Z,47.20
2023-01-20T12:31:49.307Z,52.78
2023-01-20T12:34:21.766Z,41.70
2023-01-20T12:37:13.609Z,31.53
2023-01-20T12:39:58.282Z,46.72
2023-01-20T12:43:04.345Z,49.40
2023-01-20T12:45:44.592Z,56.40
2023-01-20T12:48:27.013Z,51.20
2023-01-20T12:51:09.487Z,48.10
2023-01-20T12:54:00.381Z,52.42
2023-01-20T12:56:41.003Z,49.00
2023-01-20T12:59:22.603Z,48.75
2023-01-20T13:02:10.877Z,53.88
2023-01-20T13:05:08.855Z,48.90
2023-01-20T13:07:47.385Z,51.17
2023-01-20T13:10:38.968Z,48.78
2023-01-20T13:13:18.261Z,49.22
2023-01-20T13:15:50.182Z,56.58
2023-01-20T13:18:29.185Z,58.28
2023-01-20T13:20:57.334Z,47.55
2023-01-20T13:23:28.107Z,49.10
2023-01-20T13:25:57.360Z,46.58
2023-01-20T13:28:29.411Z,46.78
2023-01-20T13:30:58.861Z,55.92
2023-01-20T13:33:38.252Z,55.28
2023-01-20T13:36:18.190Z,48.17
2023-01-20T13:38:47.006Z,53.55
2023-01-20T13:41:48.763Z,45.83
2023-01-20T13:44:35.274Z,51.45
2023-01-20T13:47:04.048Z,54.25
2023-01-20T13:49:51.929Z,48.28
2023-01-20T13:53:03.089Z,47.10
2023-01-20T13:55:31.873Z,43.22
2023-01-20T13:57:59.782Z,50.67
2023-01-20T14:00:29.062Z,51.88
2023-01-20T14:02:56.995Z,46.75
2023-01-20T14:05:31.683Z,49.97
2023-01-20T14:08:00.595Z,48.25
2023-01-20T14:10:29.180Z,55.78
2023-01-20T14:12:57.067Z,45.85
2023-01-20T14:15:33.704Z,46.38
2023-01-20T14:18:02.238Z,48.90
2023-01-20T14:20:30.942Z,45.83
2023-01-20T14:23:28.062Z,50.22
2023-01-20T14:26:04.726Z,51.78
2023-01-20T14:28:33.690Z,48.22
2023-01-20T14:31:33.965Z,48.85
2023-01-20T14:34:04.780Z,50.95
2023-01-20T14:36:34.397Z,50.05
2023-01-20T14:39:04.316Z,51.50
2023-01-20T14:41:45.818Z,42.65
2023-01-20T14:44:17.811Z,44.63
2023-01-20T14:46:48.775Z,44.97
2023-01-20T14:49:18.536Z,42.83
2023-01-20T14:51:48.346Z,42.30
2023-01-20T14:54:31.112Z,44.40
2023-01-20T14:57:00.448Z,43.70
2023-01-20T14:59:28.413Z,45.67
2023-01-20T15:02:03.435Z,41.15
2023-01-20T15:04:37.170Z,48.67
2023-01-20T15:07:05.460Z,46.60
2023-01-20T15:09:34.863Z,40.20
2023-01-20T15:12:39.525Z,42.40
2023-01-20T15:15:15.367Z,49.88
2023-01-20T15:18:21.526Z,40.83
2023-01-20T15:20:54.973Z,47.20
2023-01-20T15:23:35.437Z,44.08
2023-01-20T15:26:09.668Z,45.63
2023-01-20T15:28:42.547Z,43.40
2023-01-20T15:31:15.087Z,43.55
2023-01-20T15:33:44.879Z,40.08
2023-01-20T15:36:23.127Z,56.42
2023-01-20T15:38:51.802Z,46.20
2023-01-20T15:41:20.022Z,43.60
2023-01-20T15:43:49.173Z,44.13
2023-01-20T15:46:18.472Z,40.20
2023-01-20T15:48:47.953Z,41.90
2023-01-20T15:51:17.972Z,44.60
2023-01-20T15:53:46.935Z,41.08
2023-01-20T15:56:22.009Z,52.42
2023-01-20T15:58:50.409Z,45.75
2023-01-20T16:01:23.976Z,47.05
2023-01-20T16:03:54.976Z,51.45
2023-01-20T16:06:27.776Z,44.55
2023-01-20T16:08:56.010Z,47.42
2023-01-20T16:11:23.959Z,39.08
2023-01-20T16:13:51.889Z,52.83
2023-01-20T16:16:22.175Z,47.05
2023-01-20T16:18:51.300Z,43.33
2023-01-20T16:21:20.890Z,44.65
2023-01-20T16:23:49.177Z,50.83
2023-01-20T16:26:24.577Z,45.97
2023-01-20T16:28:54.269Z,44.72
2023-01-20T16:31:23.681Z,55.40
2023-01-20T16:33:52.962Z,54.40
2023-01-20T16:36:24.847Z,42.28
2023-01-20T16:38:53.276Z,40.78
2023-01-20T16:41:22.988Z,55.58
2023-01-20T16:43:51.380Z,44.30
2023-01-20T16:46:21.893Z,53.60
2023-01-20T16:48:49.881Z,55.03
2023-01-20T16:51:20.112Z,52.83
2023-01-20T16:53:49.473Z,52.33
2023-01-20T16:56:19.139Z,57.25
2023-01-20T16:58:48.471Z,51.25
2023-01-20T17:01:21.091Z,57.58
2023-01-20T17:03:49.362Z,50.38
2023-01-20T17:06:19.181Z,42.63
2023-01-20T17:08:49.660Z,55.08
2023-01-20T17:11:18.417Z,56.55
2023-01-20T17:13:46.296Z,47.67
2023-01-20T17:16:14.281Z,50.63
2023-01-20T17:18:45.129Z,48.95
2023-01-20T17:21:14.141Z,51.08
2023-01-20T17:23:42.537Z,52.63
2023-01-20T17:26:11.758Z,51.25
2023-01-20T17:28:39.678Z,57.88
2023-01-20T17:31:08.601Z,50.10
2023-01-20T17:33:36.601Z,51.00
2023-01-20T17:36:06.805Z,56.05
2023-01-20T17:38:36.624Z,58.55
2023-01-20T17:41:05.490Z,52.03
2023-01-20T17:43:35.784Z,45.60
2023-01-20T17:46:13.630Z,51.80
2023-01-20T17:48:41.887Z,50.92
2023-01-20T17:51:11.337Z,51.13
2023-01-20T17:53:39.381Z,54.67
2023-01-20T17:56:12.881Z,47.67
2023-01-20T17:58:44.195Z,51.15
2023-01-20T18:01:13.919Z,48.60
2023-01-20T18:03:43.148Z,45.30
2023-01-20T18:06:12.401Z,53.35
2023-01-20T18:08:40.417Z,52.42
2023-01-20T18:11:10.385Z,43.45
2023-01-20T18:13:39.312Z,44.17
2023-01-20T18:16:12.403Z,46.20
2023-01-20T18:18:40.686Z,46.67
2023-01-20T18:21:10.612Z,45.80
2023-01-20T18:23:39.324Z,42.67
2023-01-20T18:26:08.925Z,46.60
2023-01-20T18:28:37.444Z,47.55
2023-01-20T18:31:09.065Z,50.33
2023-01-20T18:36:10.199Z,50.80
2023-01-20T18:38:43.083Z,44.63
2023-01-20T18:41:11.670Z,42.38
2023-01-20T18:43:40.441Z,48.03
2023-01-20T18:46:10.829Z,46.38
2023-01-20T18:48:39.796Z,47.03
2023-01-20T18:51:10.291Z,47.10
2023-01-20T18:53:38.423Z,49.42
2023-01-20T18:56:09.248Z,47.25
2023-01-20T18:58:38.474Z,45.83
2023-01-20T19:01:07.658Z,46.95
2023-01-20T19:03:37.743Z,48.40
2023-01-20T19:06:06.426Z,43.08
2023-01-20T19:08:34.416Z,52.25
2023-01-20T19:11:02.576Z,41.63
2023-01-20T19:13:30.880Z,44.67
2023-01-20T19:15:59.627Z,45.72
2023-01-20T19:18:28.110Z,43.70
2023-01-20T19:20:57.362Z,44.05
2023-01-20T19:23:25.298Z,37.85
2023-01-20T19:26:01.000Z,37.53
2023-01-20T19:28:28.880Z,47.58
2023-01-20T19:30:56.914Z,42.08
2023-01-20T19:33:24.888Z,43.22
2023-01-20T19:35:52.784Z,44.58
2023-01-20T19:38:22.047Z,40.28
2023-01-20T19:40:49.963Z,48.78
2023-01-20T19:43:17.966Z,38.47
2023-01-20T19:45:46.304Z,42.35
2023-01-20T19:48:14.681Z,45.70
2023-01-20T19:50:43.029Z,49.88
2023-01-20T19:53:11.045Z,46.92
2023-01-20T19:55:40.351Z,45.10
2023-01-20T19:58:08.244Z,45.13
2023-01-20T20:00:36.109Z,43.65
2023-01-20T20:03:06.323Z,40.95
2023-01-20T20:05:38.077Z,48.95
2023-01-20T20:08:06.210Z,41.97
2023-01-20T20:10:34.103Z,38.30
2023-01-20T20:13:03.372Z,40.75
2023-01-20T20:15:31.242Z,39.28
2023-01-20T20:17:59.098Z,42.10
2023-01-20T20:20:27.101Z,36.08
2023-01-20T20:22:55.117Z,38.30
2023-01-20T20:25:24.429Z,39.88
2023-01-20T20:27:52.448Z,41.35
2023-01-20T20:30:21.997Z,40.85
2023-01-20T20:32:49.972Z,33.05
2023-01-20T20:35:17.925Z,45.40
2023-01-20T20:37:47.464Z,42.67
2023-01-20T20:40:15.931Z,47.15
2023-01-20T20:42:44.024Z,34.97
2023-01-20T20:45:12.448Z,38.10
2023-01-20T20:47:41.720Z,38.47
2023-01-20T20:50:10.855Z,34.33
2023-01-20T20:52:38.772Z,37.47
2023-01-20T20:55:07.965Z,32.67
2023-01-20T20:57:35.884Z,35.75
2023-01-20T21:00:04.172Z,33.85
2023-01-20T21:02:32.153Z,36.90
2023-01-20T21:05:01.400Z,39.42
2023-01-20T21:07:29.230Z,37.65
2023-01-20T21:09:58.449Z,35.08
2023-01-20T21:12:26.403Z,34.92
2023-01-20T21:14:54.261Z,31.83
2023-01-20T21:17:22.134Z,34.90
2023-01-20T21:19:52.349Z,36.33
2023-01-20T21:22:21.706Z,43.10
2023-01-20T21:24:49.748Z,39.65
2023-01-20T21:27:17.619Z,32.58
2023-01-20T21:29:46.530Z,35.50
2023-01-20T21:32:14.687Z,33.38
2023-01-20T21:34:42.605Z,34.95
2023-01-20T21:37:10.542Z,31.90
2023-01-20T21:39:39.827Z,31.90
2023-01-20T21:42:09.116Z,31.88
2023-01-20T21:44:36.478Z,29.42
2023-01-20T21:47:07.903Z,34.50
2023-01-20T21:49:53.360Z,34.50
2023-01-20T21:52:40.670Z,30.17
2023-01-20T21:55:11.880Z,34.45
2023-01-20T21:57:39.814Z,28.35
2023-01-20T22:00:09.889Z,31.42
2023-01-20T22:02:43.391Z,33.78
2023-01-20T22:05:11.846Z,28.67
2023-01-20T22:07:39.801Z,28.08
2023-01-20T22:10:10.551Z,27.15
2023-01-20T22:12:38.410Z,35.50
2023-01-20T22:15:07.560Z,26.92
2023-01-20T22:17:35.493Z,32.28
2023-01-20T22:20:04.379Z,27.75
2023-01-20T22:22:32.207Z,27.75
2023-01-20T22:25:00.120Z,38.17
2023-01-20T22:27:29.342Z,26.55
2023-01-20T22:29:57.238Z,36.70
2023-01-20T22:32:25.092Z,27.75
2023-01-20T22:34:52.956Z,28.90
2023-01-20T22:37:20.873Z,27.67
2023-01-20T22:39:49.013Z,27.88
2023-01-20T22:42:16.953Z,24.88
2023-01-20T22:44:46.210Z,22.77
2023-01-20T22:47:14.147Z,24.70
2023-01-20T22:49:41.988Z,22.67
2023-01-20T22:52:10.412Z,25.88
2023-01-20T22:54:38.265Z,20.17
2023-01-20T22:57:06.159Z,25.25
2023-01-20T22:59:35.682Z,24.13
2023-01-20T23:02:05.035Z,20.15
2023-01-20T23:04:32.952Z,29.00
2023-01-20T23:07:00.829Z,19.88
2023-01-20T23:09:29.114Z,24.67
2023-01-20T23:11:57.013Z,22.92
2023-01-20T23:14:56.816Z,22.50
2023-01-20T23:17:26.412Z,21.63
2023-01-20T23:19:54.301Z,23.85
2023-01-20T23:22:22.684Z,20.80
2023-01-20T23:24:50.714Z,20.02
2023-01-20T23:27:18.628Z,22.70
2023-01-20T23:29:46.928Z,26.63
2023-01-20T23:32:14.835Z,25.48
2023-01-20T23:34:44.197Z,25.55
2023-01-20T23:37:12.109Z,29.95
2023-01-20T23:39:39.940Z,23.60
2023-01-20T23:42:07.933Z,24.15
2023-01-20T23:44:35.777Z,25.80
2023-01-20T23:47:03.634Z,22.00
2023-01-20T23:49:31.530Z,31.92
2023-01-20T23:52:00.754Z,26.73
2023-01-20T23:54:28.633Z,25.83
2023-01-20T23:56:56.523Z,26.10
2023-01-20T23:59:24.648Z,26.00
